createdAt,value
2018-12-23T00:00:53.505Z,0.20
2018-12-23T00:03:23.186Z,0.30
2018-12-23T00:05:52.783Z,0.40
2018-12-23T00:08:22.354Z,0.40
2018-12-23T00:10:52.156Z,0.40
2018-12-23T00:13:21.707Z,0.50
2018-12-23T00:15:51.483Z,0.50
2018-12-23T00:18:21.314Z,0.40
2018-12-23T00:20:51.025Z,0.30
2018-12-23T00:23:21.114Z,0.30
2018-12-23T00:25:54.435Z,0.40
2018-12-23T00:28:24.646Z,0.20
2018-12-23T00:30:54.859Z,0.10
2018-12-23T00:33:25.623Z,0.00
2018-12-23T00:35:55.828Z,-0.10
2018-12-23T00:38:25.523Z,-0.10
2018-12-23T00:40:55.423Z,-0.10
2018-12-23T00:43:25.167Z,-0.20
2018-12-23T00:45:54.904Z,-0.10
2018-12-23T00:48:24.468Z,0.00
2018-12-23T00:50:54.371Z,0.00
2018-12-23T00:53:24.109Z,0.20
2018-12-23T00:55:53.693Z,0.10
2018-12-23T00:58:23.482Z,0.10
2018-12-23T01:00:53.016Z,0.20
2018-12-23T01:03:22.656Z,0.20
2018-12-23T01:05:52.305Z,0.20
2018-12-23T01:08:21.909Z,0.20
2018-12-23T01:10:51.582Z,0.20
2018-12-23T01:13:21.145Z,0.20
2018-12-23T01:15:50.928Z,0.20
2018-12-23T01:18:20.656Z,0.20
2018-12-23T01:20:50.497Z,0.30
2018-12-23T01:23:20.195Z,0.30
2018-12-23T01:25:49.997Z,0.30
2018-12-23T01:28:19.614Z,0.30
2018-12-23T01:30:49.316Z,0.40
2018-12-23T01:33:19.143Z,0.40
2018-12-23T01:35:48.749Z,0.50
2018-12-23T01:38:18.385Z,0.40
2018-12-23T01:40:48.143Z,0.40
2018-12-23T01:43:17.804Z,0.50
2018-12-23T01:45:47.871Z,0.40
2018-12-23T01:48:17.532Z,0.50
2018-12-23T01:50:47.188Z,0.50
2018-12-23T01:53:16.807Z,0.60
2018-12-23T01:55:46.627Z,0.60
2018-12-23T01:58:16.231Z,0.70
2018-12-23T02:00:45.845Z,0.70
2018-12-23T02:03:15.463Z,0.70
2018-12-23T02:05:46.186Z,0.80
2018-12-23T02:08:16.240Z,0.80
2018-12-23T02:10:46.020Z,0.70
2018-12-23T02:13:15.684Z,0.60
2018-12-23T02:15:45.341Z,0.70
2018-12-23T02:18:15.123Z,0.80
2018-12-23T02:20:44.840Z,0.90
2018-12-23T02:23:14.534Z,0.90
2018-12-23T02:25:44.368Z,0.90
2018-12-23T02:28:13.995Z,1.00
2018-12-23T02:30:43.762Z,1.00
2018-12-23T02:33:13.379Z,0.90
2018-12-23T02:35:43.073Z,0.90
2018-12-23T02:38:12.676Z,0.90
2018-12-23T02:40:42.323Z,0.80
2018-12-23T02:43:12.076Z,0.90
2018-12-23T02:45:41.732Z,0.90
2018-12-23T02:48:11.372Z,1.00
2018-12-23T02:50:41.011Z,1.00
2018-12-23T02:53:10.591Z,1.10
2018-12-23T02:55:40.328Z,1.10
2018-12-23T02:58:47.270Z,1.10
2018-12-23T03:01:17.894Z,1.20
2018-12-23T03:03:48.526Z,1.20
2018-12-23T03:06:19.226Z,1.20
2018-12-23T03:08:49.917Z,1.20
2018-12-23T03:11:20.515Z,1.30
2018-12-23T03:13:51.211Z,1.40
2018-12-23T03:16:21.918Z,1.40
2018-12-23T03:18:52.508Z,1.40
2018-12-23T03:21:23.226Z,1.40
2018-12-23T03:23:53.998Z,1.50
2018-12-23T03:26:24.785Z,1.50
2018-12-23T03:28:55.533Z,1.50
2018-12-23T03:31:26.211Z,1.60
2018-12-23T03:33:56.827Z,1.70
2018-12-23T03:36:27.547Z,1.80
2018-12-23T03:38:58.232Z,1.80
2018-12-23T03:41:28.838Z,1.80
2018-12-23T03:43:59.533Z,1.80
2018-12-23T03:46:30.323Z,1.80
2018-12-23T03:49:01.042Z,1.80
2018-12-23T03:51:31.818Z,1.80
2018-12-23T03:54:02.501Z,1.90
2018-12-23T03:56:33.209Z,1.80
2018-12-23T03:59:04.011Z,1.90
2018-12-23T04:01:34.745Z,1.90
2018-12-23T04:04:05.422Z,1.90
2018-12-23T04:06:36.119Z,1.90
2018-12-23T04:09:08.147Z,2.00
2018-12-23T04:11:38.851Z,2.00
2018-12-23T04:14:09.514Z,2.00
2018-12-23T04:16:40.195Z,2.10
2018-12-23T04:19:10.825Z,2.20
2018-12-23T04:21:41.524Z,2.30
2018-12-23T04:24:12.211Z,2.20
2018-12-23T04:26:42.850Z,2.20
2018-12-23T04:29:13.442Z,2.20
2018-12-23T04:31:44.112Z,2.30
2018-12-23T04:34:14.694Z,2.20
2018-12-23T04:36:45.431Z,2.20
2018-12-23T04:39:16.098Z,2.30
2018-12-23T04:41:46.745Z,2.40
2018-12-23T04:44:17.407Z,2.50
2018-12-23T04:46:48.111Z,2.40
2018-12-23T04:49:18.706Z,2.50
2018-12-23T04:51:49.421Z,2.50
2018-12-23T04:54:20.086Z,2.50
2018-12-23T04:56:50.732Z,2.40
2018-12-23T04:59:21.406Z,2.40
2018-12-23T05:01:51.966Z,2.50
2018-12-23T05:04:22.678Z,2.60
2018-12-23T05:06:53.377Z,2.60
2018-12-23T05:09:24.100Z,2.60
2018-12-23T05:11:54.608Z,2.50
2018-12-23T05:14:25.321Z,2.50
2018-12-23T05:16:55.977Z,2.60
2018-12-23T05:19:26.684Z,2.60
2018-12-23T05:21:57.396Z,2.70
2018-12-23T05:24:27.982Z,2.70
2018-12-23T05:26:58.613Z,2.70
2018-12-23T05:29:29.311Z,2.70
2018-12-23T05:31:59.877Z,2.50
2018-12-23T05:34:30.490Z,2.50
2018-12-23T05:37:01.216Z,2.50
2018-12-23T05:39:31.869Z,2.60
2018-12-23T05:42:02.508Z,2.60
2018-12-23T05:44:33.226Z,2.60
2018-12-23T05:47:03.849Z,2.50
2018-12-23T05:49:34.549Z,2.50
2018-12-23T05:52:05.475Z,2.50
2018-12-23T05:54:36.049Z,2.50
2018-12-23T05:57:08.942Z,2.50
2018-12-23T05:59:47.281Z,2.60
2018-12-23T06:02:22.918Z,2.60
2018-12-23T06:04:54.118Z,2.70
2018-12-23T06:07:24.907Z,2.80
2018-12-23T06:09:55.811Z,2.70
2018-12-23T06:12:26.526Z,2.60
2018-12-23T06:14:57.170Z,2.50
2018-12-23T06:17:27.788Z,2.60
2018-12-23T06:19:58.518Z,2.70
2018-12-23T06:22:29.181Z,2.60
2018-12-23T06:24:59.902Z,2.50
2018-12-23T06:27:30.563Z,2.70
2018-12-23T06:30:04.696Z,2.70
2018-12-23T06:32:52.972Z,2.80
2018-12-23T06:35:23.641Z,2.80
2018-12-23T06:37:54.378Z,2.90
2018-12-23T06:40:25.147Z,2.90
2018-12-23T06:42:55.878Z,2.90
2018-12-23T06:45:26.510Z,2.90
2018-12-23T06:47:57.275Z,2.90
2018-12-23T06:50:27.937Z,2.80
2018-12-23T06:52:58.534Z,2.90
2018-12-23T06:55:29.240Z,2.90
2018-12-23T06:57:59.913Z,2.90
2018-12-23T07:00:30.792Z,2.90
2018-12-23T07:03:01.450Z,2.80
2018-12-23T07:05:32.102Z,2.80
2018-12-23T07:08:02.853Z,2.80
2018-12-23T07:10:33.622Z,2.90
2018-12-23T07:13:04.294Z,2.90
2018-12-23T07:15:34.944Z,3.00
2018-12-23T07:18:05.644Z,3.00
2018-12-23T07:20:36.310Z,3.00
2018-12-23T07:23:06.945Z,3.10
2018-12-23T07:25:37.652Z,3.00
2018-12-23T07:28:08.184Z,2.90
2018-12-23T07:30:38.822Z,2.90
2018-12-23T07:33:09.526Z,3.00
2018-12-23T07:35:40.202Z,3.00
2018-12-23T07:38:10.832Z,3.00
2018-12-23T07:40:43.383Z,3.00
2018-12-23T07:43:14.046Z,3.10
2018-12-23T07:45:44.651Z,3.00
2018-12-23T07:48:15.359Z,3.00
2018-12-23T07:50:45.933Z,3.10
2018-12-23T07:53:16.563Z,3.10
2018-12-23T07:55:47.249Z,3.10
2018-12-23T07:58:18.051Z,3.10
2018-12-23T08:00:48.690Z,3.10
2018-12-23T08:03:19.480Z,3.10
2018-12-23T08:05:50.166Z,3.20
2018-12-23T08:08:20.881Z,3.20
2018-12-23T08:10:51.669Z,3.30
2018-12-23T08:13:22.364Z,3.30
2018-12-23T08:15:53.082Z,3.40
2018-12-23T08:18:23.864Z,3.40
2018-12-23T08:20:54.525Z,3.40
2018-12-23T08:23:25.110Z,3.40
2018-12-23T08:25:55.876Z,3.40
2018-12-23T08:28:31.009Z,3.40
2018-12-23T08:31:07.836Z,3.40
2018-12-23T08:33:38.474Z,3.50
2018-12-23T08:36:09.632Z,3.50
2018-12-23T08:38:40.298Z,3.50
2018-12-23T08:41:13.217Z,3.40
2018-12-23T08:43:44.085Z,3.60
2018-12-23T08:46:14.795Z,3.70
2018-12-23T08:48:45.481Z,3.70
2018-12-23T08:51:16.182Z,3.70
2018-12-23T08:53:46.877Z,3.70
2018-12-23T08:56:17.506Z,3.90
2018-12-23T08:58:48.177Z,3.80
2018-12-23T09:01:18.891Z,3.60
2018-12-23T09:03:49.590Z,3.80
2018-12-23T09:06:23.910Z,3.70
2018-12-23T09:08:59.841Z,3.70
2018-12-23T09:11:32.891Z,3.70
2018-12-23T09:14:03.845Z,3.70
2018-12-23T09:16:36.239Z,3.70
2018-12-23T09:19:06.962Z,3.80
2018-12-23T09:21:37.873Z,3.80
2018-12-23T09:24:08.740Z,3.70
2018-12-23T09:26:39.454Z,3.80
2018-12-23T09:29:10.125Z,3.80
2018-12-23T09:31:50.568Z,3.90
2018-12-23T09:34:21.429Z,4.10
2018-12-23T09:36:52.087Z,4.00
2018-12-23T09:39:23.194Z,4.10
2018-12-23T09:41:54.007Z,4.10
2018-12-23T09:44:24.774Z,4.20
2018-12-23T09:46:55.546Z,4.40
2018-12-23T09:49:26.266Z,4.40
2018-12-23T09:51:56.886Z,4.50
2018-12-23T09:54:27.546Z,4.60
2018-12-23T09:57:00.454Z,4.50
2018-12-23T09:59:38.487Z,4.50
2018-12-23T10:02:29.471Z,4.50
2018-12-23T10:05:00.333Z,4.40
2018-12-23T10:07:30.997Z,4.40
2018-12-23T10:10:01.676Z,4.50
2018-12-23T10:12:32.421Z,4.60
2018-12-23T10:15:03.086Z,4.70
2018-12-23T10:17:33.711Z,4.60
2018-12-23T10:20:04.592Z,4.60
2018-12-23T10:22:35.262Z,4.60
2018-12-23T10:25:06.009Z,4.60
2018-12-23T10:27:36.783Z,4.80
2018-12-23T10:30:07.889Z,5.00
2018-12-23T10:32:38.493Z,5.00
2018-12-23T10:35:09.190Z,5.00
2018-12-23T10:37:39.836Z,5.20
2018-12-23T10:40:10.713Z,5.30
2018-12-23T10:42:41.403Z,5.40
2018-12-23T10:45:12.082Z,5.60
2018-12-23T10:47:42.818Z,5.60
2018-12-23T10:50:13.497Z,5.30
2018-12-23T10:52:44.178Z,5.30
2018-12-23T10:55:14.809Z,5.40
2018-12-23T10:57:45.614Z,5.50
2018-12-23T11:00:16.289Z,5.50
2018-12-23T11:02:47.002Z,5.60
2018-12-23T11:05:17.882Z,5.70
2018-12-23T11:07:48.561Z,5.60
2018-12-23T11:10:19.284Z,5.70
2018-12-23T11:12:50.109Z,5.50
2018-12-23T11:15:20.757Z,5.40
2018-12-23T11:17:51.408Z,5.60
2018-12-23T11:20:22.157Z,5.70
2018-12-23T11:22:52.868Z,5.70
2018-12-23T11:25:23.484Z,5.60
2018-12-23T11:28:05.151Z,5.80
2018-12-23T11:30:35.926Z,5.90
2018-12-23T11:33:06.546Z,6.00
2018-12-23T11:35:37.200Z,6.10
2018-12-23T11:38:07.921Z,6.10
2018-12-23T11:40:38.672Z,6.20
2018-12-23T11:43:09.440Z,6.20
2018-12-23T11:45:40.240Z,6.20
2018-12-23T11:48:12.614Z,6.20
2018-12-23T11:50:43.384Z,6.30
2018-12-23T11:53:14.493Z,6.30
2018-12-23T11:55:45.066Z,6.30
2018-12-23T11:58:15.762Z,6.30
2018-12-23T12:00:46.608Z,6.20
2018-12-23T12:03:17.328Z,6.20
2018-12-23T12:05:48.072Z,6.10
2018-12-23T12:08:19.668Z,6.10
2018-12-23T12:10:50.305Z,6.20
2018-12-23T12:13:21.090Z,6.20
2018-12-23T12:15:51.750Z,6.20
2018-12-23T12:18:22.415Z,6.20
2018-12-23T12:20:53.100Z,6.20
2018-12-23T12:23:23.750Z,6.20
2018-12-23T12:25:54.410Z,6.20
2018-12-23T12:28:25.090Z,6.20
2018-12-23T12:30:55.742Z,6.20
2018-12-23T12:33:26.369Z,6.20
2018-12-23T12:35:57.076Z,6.20
2018-12-23T12:38:27.766Z,6.20
2018-12-23T12:40:58.390Z,6.30
2018-12-23T12:43:29.058Z,6.20
2018-12-23T12:46:00.648Z,6.20
2018-12-23T12:48:31.426Z,6.20
2018-12-23T12:51:02.125Z,6.00
2018-12-23T12:53:32.875Z,6.10
2018-12-23T12:56:03.629Z,6.20
2018-12-23T12:58:34.300Z,6.30
2018-12-23T13:01:04.988Z,6.20
2018-12-23T13:03:35.962Z,6.00
2018-12-23T13:06:06.696Z,5.80
2018-12-23T13:08:37.358Z,6.00
2018-12-23T13:11:08.160Z,6.10
2018-12-23T13:13:39.045Z,6.10
2018-12-23T13:16:09.658Z,6.00
2018-12-23T13:18:40.303Z,5.90
2018-12-23T13:21:11.018Z,5.90
2018-12-23T13:23:41.674Z,5.90
2018-12-23T13:26:12.457Z,5.90
2018-12-23T13:28:43.198Z,5.80
2018-12-23T13:31:13.869Z,5.90
2018-12-23T13:33:44.499Z,5.90
2018-12-23T13:36:15.186Z,5.80
2018-12-23T13:38:45.842Z,5.80
2018-12-23T13:41:52.822Z,5.80
2018-12-23T13:45:03.866Z,5.80
2018-12-23T13:48:19.695Z,5.70
2018-12-23T13:51:25.909Z,5.60
2018-12-23T13:54:30.460Z,5.50
2018-12-23T13:57:24.709Z,5.60
2018-12-23T14:00:30.804Z,5.60
2018-12-23T14:03:15.833Z,5.60
2018-12-23T14:06:14.695Z,5.60
2018-12-23T14:09:20.858Z,5.60
2018-12-23T14:11:55.650Z,5.60
2018-12-23T14:14:26.453Z,5.60
2018-12-23T14:16:57.083Z,5.60
2018-12-23T14:19:28.150Z,5.60
2018-12-23T14:21:58.833Z,5.60
2018-12-23T14:24:31.264Z,5.60
2018-12-23T14:27:01.802Z,5.60
2018-12-23T14:29:32.474Z,5.50
2018-12-23T14:32:03.091Z,5.50
2018-12-23T14:34:33.801Z,5.50
2018-12-23T14:37:04.983Z,5.50
2018-12-23T14:39:35.590Z,5.50
2018-12-23T14:42:06.282Z,5.50
2018-12-23T14:44:36.991Z,5.50
2018-12-23T14:47:07.826Z,5.50
2018-12-23T14:49:38.521Z,5.50
2018-12-23T14:52:09.189Z,5.50
2018-12-23T14:54:39.931Z,5.50
2018-12-23T14:57:10.618Z,5.30
2018-12-23T14:59:41.290Z,5.40
2018-12-23T15:02:12.137Z,5.40
2018-12-23T15:04:42.904Z,5.40
2018-12-23T15:07:13.620Z,5.40
2018-12-23T15:09:47.105Z,5.40
2018-12-23T15:12:17.726Z,5.40
2018-12-23T15:14:48.593Z,5.40
2018-12-23T15:17:19.405Z,5.30
2018-12-23T15:19:51.925Z,5.30
2018-12-23T15:22:22.699Z,5.30
2018-12-23T15:24:54.574Z,5.30
2018-12-23T15:27:25.272Z,5.10
2018-12-23T15:29:55.925Z,5.10
2018-12-23T15:32:27.281Z,5.10
2018-12-23T15:34:57.921Z,5.10
2018-12-23T15:37:28.635Z,5.10
2018-12-23T15:40:01.876Z,5.00
2018-12-23T15:42:32.560Z,5.00
2018-12-23T15:45:08.962Z,5.00
2018-12-23T15:47:39.798Z,5.00
2018-12-23T15:50:10.485Z,5.00
2018-12-23T15:52:41.467Z,5.00
2018-12-23T15:55:12.161Z,5.00
2018-12-23T15:57:43.193Z,5.00
2018-12-23T16:00:13.875Z,5.00
2018-12-23T16:02:44.567Z,5.10
2018-12-23T16:05:15.181Z,5.10
2018-12-23T16:07:45.870Z,4.90
2018-12-23T16:10:16.545Z,5.00
2018-12-23T16:12:47.284Z,5.00
2018-12-23T16:15:17.954Z,5.00
2018-12-23T16:17:48.697Z,5.00
2018-12-23T16:20:19.711Z,5.00
2018-12-23T16:22:50.469Z,5.00
2018-12-23T16:25:21.122Z,5.00
2018-12-23T16:27:52.008Z,4.90
2018-12-23T16:30:22.810Z,4.90
2018-12-23T16:32:53.446Z,4.90
2018-12-23T16:35:24.095Z,4.90
2018-12-23T16:37:54.817Z,4.90
2018-12-23T16:40:25.455Z,4.90
2018-12-23T16:42:56.102Z,4.80
2018-12-23T16:45:27.280Z,4.90
2018-12-23T16:47:57.950Z,4.90
2018-12-23T16:50:28.577Z,4.90
2018-12-23T16:52:59.273Z,4.90
2018-12-23T16:55:29.950Z,4.90
2018-12-23T16:58:01.413Z,4.80
2018-12-23T17:00:32.203Z,4.80
2018-12-23T17:03:02.882Z,4.70
2018-12-23T17:05:33.615Z,4.60
2018-12-23T17:08:04.415Z,4.70
2018-12-23T17:10:35.101Z,4.70
2018-12-23T17:13:05.823Z,4.60
2018-12-23T17:15:36.597Z,4.70
2018-12-23T17:18:07.242Z,4.70
2018-12-23T17:20:37.909Z,4.70
2018-12-23T17:23:08.679Z,4.70
2018-12-23T17:25:39.372Z,4.70
2018-12-23T17:28:10.001Z,4.70
2018-12-23T17:30:40.681Z,4.70
2018-12-23T17:33:11.370Z,4.70
2018-12-23T17:35:41.990Z,4.70
2018-12-23T17:38:13.386Z,4.70
2018-12-23T17:40:44.645Z,4.60
2018-12-23T17:43:15.619Z,4.70
2018-12-23T17:45:46.299Z,4.60
2018-12-23T17:48:16.973Z,4.60
2018-12-23T17:50:47.505Z,4.60
2018-12-23T17:53:18.208Z,4.60
2018-12-23T17:55:49.036Z,4.60
2018-12-23T17:58:19.687Z,4.60
2018-12-23T18:00:50.387Z,4.60
2018-12-23T18:03:21.050Z,4.60
2018-12-23T18:05:51.692Z,4.70
2018-12-23T18:08:22.390Z,4.70
2018-12-23T18:10:53.087Z,4.60
2018-12-23T18:13:23.820Z,4.60
2018-12-23T18:15:54.485Z,4.60
2018-12-23T18:18:25.373Z,4.60
2018-12-23T18:20:56.668Z,4.50
2018-12-23T18:23:27.449Z,4.60
2018-12-23T18:25:58.266Z,4.50
2018-12-23T18:28:28.933Z,4.50
2018-12-23T18:30:59.609Z,4.40
2018-12-23T18:33:30.261Z,4.40
2018-12-23T18:36:00.990Z,4.40
2018-12-23T18:38:31.714Z,4.50
2018-12-23T18:41:02.357Z,4.50
2018-12-23T18:43:33.128Z,4.50
2018-12-23T18:46:03.798Z,4.50
2018-12-23T18:48:34.458Z,4.50
2018-12-23T18:51:05.108Z,4.50
2018-12-23T18:53:35.827Z,4.40
2018-12-23T18:56:06.524Z,4.50
2018-12-23T18:58:37.237Z,4.50
2018-12-23T19:01:08.409Z,4.60
2018-12-23T19:03:39.269Z,4.50
2018-12-23T19:06:11.801Z,4.40
2018-12-23T19:08:59.492Z,4.40
2018-12-23T19:11:50.477Z,4.40
2018-12-23T19:15:02.274Z,4.40
2018-12-23T19:17:57.224Z,4.50
2018-12-23T19:21:06.317Z,4.50
2018-12-23T19:24:11.385Z,4.50
2018-12-23T19:27:24.852Z,4.50
2018-12-23T19:30:26.814Z,4.50
2018-12-23T19:33:56.225Z,4.30
2018-12-23T19:36:57.230Z,4.30
2018-12-23T19:40:06.144Z,4.40
2018-12-23T19:43:17.974Z,4.40
2018-12-23T19:46:26.309Z,4.40
2018-12-23T19:49:51.341Z,4.40
2018-12-23T19:53:08.561Z,4.30
2018-12-23T19:56:27.402Z,4.20
2018-12-23T19:59:43.390Z,4.30
2018-12-23T20:02:43.080Z,4.20
2018-12-23T20:05:56.127Z,4.20
2018-12-23T20:09:12.325Z,4.20
2018-12-23T20:12:09.620Z,4.00
2018-12-23T20:15:02.309Z,4.00
2018-12-23T20:18:02.861Z,4.00
2018-12-23T20:21:15.443Z,4.00
2018-12-23T20:24:19.489Z,4.00
2018-12-23T20:27:27.088Z,4.00
2018-12-23T20:30:31.101Z,4.00
2018-12-23T20:34:06.447Z,4.00
2018-12-23T20:37:29.505Z,4.00
2018-12-23T20:40:39.574Z,3.90
2018-12-23T20:43:39.005Z,3.90
2018-12-23T20:46:41.432Z,3.90
2018-12-23T20:49:43.021Z,3.90
2018-12-23T20:52:53.774Z,3.90
2018-12-23T20:56:09.917Z,4.00
2018-12-23T20:58:48.057Z,4.00
2018-12-23T21:02:11.753Z,4.00
2018-12-23T21:05:24.469Z,4.00
2018-12-23T21:08:30.534Z,4.00
2018-12-23T21:11:37.923Z,4.00
2018-12-23T21:14:45.086Z,4.00
2018-12-23T21:17:53.323Z,4.00
2018-12-23T21:21:13.716Z,4.00
2018-12-23T21:24:36.882Z,4.10
2018-12-23T21:27:25.350Z,4.10
2018-12-23T21:30:19.390Z,4.10
2018-12-23T21:33:22.246Z,4.10
2018-12-23T21:36:39.520Z,4.00
2018-12-23T21:39:45.583Z,4.00
2018-12-23T21:42:53.964Z,3.90
2018-12-23T21:46:08.662Z,4.00
2018-12-23T21:49:08.057Z,4.00
2018-12-23T21:52:21.705Z,4.00
2018-12-23T21:55:35.855Z,4.00
2018-12-23T21:58:45.596Z,4.00
2018-12-23T22:02:01.220Z,4.00
2018-12-23T22:05:11.551Z,4.00
2018-12-23T22:08:24.200Z,4.00
2018-12-23T22:11:13.426Z,4.00
2018-12-23T22:13:44.133Z,4.00
2018-12-23T22:16:14.695Z,4.00
2018-12-23T22:18:45.481Z,4.00
2018-12-23T22:21:16.059Z,4.00
2018-12-23T22:23:46.772Z,4.00
2018-12-23T22:26:17.423Z,4.00
2018-12-23T22:28:47.780Z,4.00
2018-12-23T22:31:18.276Z,4.00
2018-12-23T22:33:49.009Z,4.10
2018-12-23T22:36:19.692Z,4.00
2018-12-23T22:38:50.332Z,4.00
2018-12-23T22:41:24.792Z,4.10
2018-12-23T22:43:55.524Z,4.10
2018-12-23T22:46:26.188Z,4.10
2018-12-23T22:48:56.902Z,4.00
2018-12-23T22:51:27.584Z,4.10
2018-12-23T22:53:58.222Z,4.10
2018-12-23T22:56:28.886Z,4.10
2018-12-23T22:58:59.577Z,4.20
2018-12-23T23:01:30.196Z,4.20
2018-12-23T23:04:00.894Z,4.20
2018-12-23T23:06:31.542Z,4.20
2018-12-23T23:09:02.142Z,4.20
2018-12-23T23:11:32.898Z,4.20
2018-12-23T23:14:03.597Z,4.10
2018-12-23T23:16:34.289Z,4.20
2018-12-23T23:19:04.985Z,4.20
2018-12-23T23:21:35.499Z,4.20
2018-12-23T23:24:06.214Z,4.10
2018-12-23T23:26:36.980Z,4.10
2018-12-23T23:29:07.644Z,4.10
2018-12-23T23:31:38.023Z,4.20
2018-12-23T23:34:08.819Z,4.20
2018-12-23T23:36:39.716Z,4.20
2018-12-23T23:39:10.362Z,4.20
2018-12-23T23:41:41.058Z,4.10
2018-12-23T23:44:11.744Z,4.10
2018-12-23T23:46:42.342Z,4.10
2018-12-23T23:49:13.261Z,4.10
2018-12-23T23:51:43.921Z,4.10
2018-12-23T23:54:14.565Z,4.00
2018-12-23T23:56:45.239Z,4.00
2018-12-23T23:59:15.911Z,4.00
